createdAt,value
2017-09-17T00:00:00.467Z,0
2017-09-17T00:01:00.141Z,0
2017-09-17T00:02:00.435Z,0
2017-09-17T00:03:00.430Z,0
2017-09-17T00:04:00.109Z,0
2017-09-17T00:05:00.414Z,0
2017-09-17T00:06:00.408Z,0
2017-09-17T00:07:00.402Z,0
2017-09-17T00:08:00.382Z,0
2017-09-17T00:09:00.386Z,0
2017-09-17T00:10:00.373Z,0
2017-09-17T00:11:00.359Z,0
2017-09-17T00:12:00.348Z,0
2017-09-17T00:13:00.339Z,0
2017-09-17T00:14:00.329Z,0
2017-09-17T00:15:00.323Z,0
2017-09-17T00:16:00.005Z,0
2017-09-17T00:17:00.304Z,0
2017-09-17T00:17:59.994Z,0
2017-09-17T00:19:00.285Z,0
2017-09-17T00:20:00.285Z,0
2017-09-17T00:21:00.265Z,0
2017-09-17T00:21:59.946Z,0
2017-09-17T00:23:00.251Z,0
2017-09-17T00:24:00.262Z,0
2017-09-17T00:25:00.232Z,0
2017-09-17T00:26:00.227Z,0
2017-09-17T00:27:00.220Z,0
2017-09-17T00:28:00.206Z,0
2017-09-17T00:29:00.199Z,0
2017-09-17T00:29:59.883Z,0
2017-09-17T00:31:00.170Z,0
2017-09-17T00:32:00.169Z,0
2017-09-17T00:32:59.858Z,0
2017-09-17T00:34:00.147Z,0
2017-09-17T00:35:00.143Z,0
2017-09-17T00:35:59.826Z,0
2017-09-17T00:37:00.123Z,0
2017-09-17T00:38:00.113Z,0
2017-09-17T00:39:00.103Z,0
2017-09-17T00:40:00.098Z,0
2017-09-17T00:40:59.777Z,0
2017-09-17T00:42:00.077Z,0
2017-09-17T00:43:00.063Z,0
2017-09-17T00:44:00.058Z,0
2017-09-17T00:45:00.055Z,0
2017-09-17T00:46:00.039Z,0
2017-09-17T00:47:00.027Z,0
2017-09-17T00:47:59.719Z,0
2017-09-17T00:49:00.009Z,0
2017-09-17T00:50:00.002Z,0
2017-09-17T00:50:59.722Z,0
2017-09-17T00:51:59.680Z,0
2017-09-17T00:52:59.980Z,0
2017-09-17T00:53:59.967Z,0
2017-09-17T00:54:59.956Z,0
2017-09-17T00:55:59.950Z,0
2017-09-17T00:56:59.939Z,0
2017-09-17T00:57:59.953Z,0
2017-09-17T00:58:59.916Z,0
2017-09-17T00:59:59.908Z,0
2017-09-17T01:00:59.901Z,0
2017-09-17T01:01:59.897Z,0
2017-09-17T01:02:59.881Z,0
2017-09-17T01:03:59.871Z,0
2017-09-17T01:04:59.861Z,0
2017-09-17T01:05:59.850Z,0
2017-09-17T01:06:59.839Z,0
2017-09-17T01:07:59.524Z,0
2017-09-17T01:08:59.820Z,0
2017-09-17T01:09:59.506Z,0
2017-09-17T01:10:59.497Z,0
2017-09-17T01:11:59.486Z,0
2017-09-17T01:12:59.793Z,0
2017-09-17T01:13:59.781Z,0
2017-09-17T01:14:59.773Z,0
2017-09-17T01:16:00.006Z,0
2017-09-17T01:16:59.438Z,0
2017-09-17T01:17:59.432Z,0
2017-09-17T01:18:59.429Z,0
2017-09-17T01:19:59.414Z,0
2017-09-17T01:20:59.404Z,0
2017-09-17T01:21:59.712Z,0
2017-09-17T01:22:59.702Z,0
2017-09-17T01:23:59.681Z,0
2017-09-17T01:24:59.673Z,0
2017-09-17T01:25:59.663Z,0
2017-09-17T01:26:59.656Z,0
2017-09-17T01:27:59.646Z,0
2017-09-17T01:28:59.645Z,0
2017-09-17T01:29:59.314Z,0
2017-09-17T01:30:59.620Z,0
2017-09-17T01:31:59.615Z,0
2017-09-17T01:32:59.600Z,0
2017-09-17T01:33:59.281Z,0
2017-09-17T01:34:59.273Z,0
2017-09-17T01:35:59.572Z,0
2017-09-17T01:36:59.252Z,0
2017-09-17T01:37:59.547Z,0
2017-09-17T01:38:59.548Z,0
2017-09-17T01:39:59.528Z,0
2017-09-17T01:40:59.518Z,0
2017-09-17T01:41:59.512Z,0
2017-09-17T01:42:59.204Z,0
2017-09-17T01:43:59.500Z,0
2017-09-17T01:44:59.175Z,0
2017-09-17T01:45:59.165Z,0
2017-09-17T01:46:59.151Z,0
2017-09-17T01:47:59.153Z,0
2017-09-17T01:48:59.131Z,0
2017-09-17T01:49:59.438Z,0
2017-09-17T01:50:59.117Z,0
2017-09-17T01:51:59.415Z,0
2017-09-17T01:52:59.406Z,0
2017-09-17T01:53:59.400Z,0
2017-09-17T01:54:59.392Z,0
2017-09-17T01:55:59.375Z,0
2017-09-17T01:56:59.059Z,0
2017-09-17T01:57:59.047Z,0
2017-09-17T01:58:59.041Z,0
2017-09-17T01:59:59.341Z,0
2017-09-17T02:00:59.022Z,0
2017-09-17T02:01:59.319Z,0
2017-09-17T02:02:59.001Z,0
2017-09-17T02:03:58.993Z,0
2017-09-17T02:04:59.289Z,0
2017-09-17T02:05:59.282Z,0
2017-09-17T02:06:59.275Z,0
2017-09-17T02:07:58.956Z,0
2017-09-17T02:08:59.253Z,0
2017-09-17T02:09:59.238Z,0
2017-09-17T02:10:59.236Z,0
2017-09-17T02:11:58.910Z,0
2017-09-17T02:12:59.209Z,0
2017-09-17T02:13:59.205Z,0
2017-09-17T02:14:58.575Z,0
2017-09-17T02:15:58.870Z,0
2017-09-17T02:16:59.177Z,0
2017-09-17T02:17:59.171Z,0
2017-09-17T02:18:59.157Z,0
2017-09-17T02:19:58.839Z,0
2017-09-17T02:20:59.136Z,0
2017-09-17T02:21:58.505Z,0
2017-09-17T02:22:59.119Z,0
2017-09-17T02:23:59.112Z,0
2017-09-17T02:24:59.097Z,0
2017-09-17T02:25:59.085Z,0
2017-09-17T02:26:59.081Z,0
2017-09-17T02:27:59.072Z,0
2017-09-17T02:28:58.749Z,0
2017-09-17T02:29:59.057Z,0
2017-09-17T02:30:59.049Z,0
2017-09-17T02:31:59.028Z,0
2017-09-17T02:32:59.023Z,0
2017-09-17T02:33:58.700Z,0
2017-09-17T02:34:59.003Z,0
2017-09-17T02:35:58.990Z,0
2017-09-17T02:36:58.675Z,0
2017-09-17T02:37:58.975Z,0
2017-09-17T02:38:58.662Z,0
2017-09-17T02:39:58.646Z,0
2017-09-17T02:40:58.951Z,0
2017-09-17T02:41:58.622Z,0
2017-09-17T02:42:58.615Z,0
2017-09-17T02:43:58.914Z,0
2017-09-17T02:44:58.899Z,0
2017-09-17T02:45:58.888Z,0
2017-09-17T02:46:58.893Z,0
2017-09-17T02:47:58.873Z,0
2017-09-17T02:48:58.563Z,0
2017-09-17T02:49:58.855Z,0
2017-09-17T02:50:58.530Z,0
2017-09-17T02:51:58.831Z,0
2017-09-17T02:52:58.828Z,0
2017-09-17T02:53:58.821Z,0
2017-09-17T02:54:58.811Z,0
2017-09-17T02:55:58.488Z,0
2017-09-17T02:56:58.783Z,0
2017-09-17T02:57:58.466Z,0
2017-09-17T02:58:58.769Z,0
2017-09-17T02:59:58.447Z,0
2017-09-17T03:00:58.750Z,0
2017-09-17T03:01:58.429Z,0
2017-09-17T03:02:58.726Z,0
2017-09-17T03:03:58.711Z,0
2017-09-17T03:04:58.399Z,0
2017-09-17T03:05:58.696Z,0
2017-09-17T03:06:58.684Z,0
2017-09-17T03:07:58.678Z,0
2017-09-17T03:08:58.359Z,0
2017-09-17T03:09:58.656Z,0
2017-09-17T03:10:58.335Z,0
2017-09-17T03:11:58.635Z,0
2017-09-17T03:12:58.314Z,0
2017-09-17T03:13:58.310Z,0
2017-09-17T03:14:58.614Z,0
2017-09-17T03:15:58.633Z,0
2017-09-17T03:16:58.585Z,0
2017-09-17T03:17:58.574Z,0
2017-09-17T03:18:58.566Z,0
2017-09-17T03:19:58.557Z,0
2017-09-17T03:20:58.238Z,0
2017-09-17T03:21:58.538Z,0
2017-09-17T03:23:00.553Z,0
2017-09-17T03:23:58.514Z,0
2017-09-17T03:24:58.507Z,0
2017-09-17T03:25:58.187Z,0
2017-09-17T03:26:58.488Z,0
2017-09-17T03:27:58.476Z,0
2017-09-17T03:28:58.466Z,0
2017-09-17T03:29:58.152Z,0
2017-09-17T03:30:58.455Z,0
2017-09-17T03:31:58.430Z,0
2017-09-17T03:32:58.431Z,0
2017-09-17T03:33:58.426Z,0
2017-09-17T03:34:57.783Z,0
2017-09-17T03:35:58.398Z,0
2017-09-17T03:36:58.079Z,0
2017-09-17T03:37:57.756Z,0
2017-09-17T03:38:58.370Z,0
2017-09-17T03:39:58.352Z,0
2017-09-17T03:40:58.346Z,0
2017-09-17T03:41:58.335Z,0
2017-09-17T03:42:58.329Z,0
2017-09-17T03:43:58.319Z,0
2017-09-17T03:44:58.307Z,0
2017-09-17T03:45:58.290Z,0
2017-09-17T03:46:58.288Z,0
2017-09-17T03:47:58.316Z,0
2017-09-17T03:48:58.272Z,0
2017-09-17T03:49:58.258Z,0
2017-09-17T03:50:58.254Z,0
2017-09-17T03:51:58.240Z,0
2017-09-17T03:52:57.912Z,0
2017-09-17T03:53:58.212Z,0
2017-09-17T03:54:58.212Z,0
2017-09-17T03:55:58.195Z,0
2017-09-17T03:56:58.193Z,0
2017-09-17T03:57:58.180Z,0
2017-09-17T03:58:57.854Z,0
2017-09-17T03:59:58.157Z,0
2017-09-17T04:00:57.841Z,0
2017-09-17T04:01:58.133Z,0
2017-09-17T04:02:58.131Z,0
2017-09-17T04:03:58.121Z,0
2017-09-17T04:04:58.112Z,0
2017-09-17T04:05:58.096Z,0
2017-09-17T04:06:58.092Z,0
2017-09-17T04:07:58.071Z,0
2017-09-17T04:08:57.760Z,4
2017-09-17T04:09:58.057Z,4
2017-09-17T04:10:58.051Z,4
2017-09-17T04:11:57.724Z,4
2017-09-17T04:12:57.734Z,4
2017-09-17T04:13:57.706Z,8
2017-09-17T04:14:57.698Z,4
2017-09-17T04:15:57.713Z,8
2017-09-17T04:16:57.989Z,8
2017-09-17T04:17:57.974Z,8
2017-09-17T04:18:57.965Z,12
2017-09-17T04:19:57.967Z,12
2017-09-17T04:20:57.951Z,20
2017-09-17T04:21:57.623Z,20
2017-09-17T04:22:57.929Z,24
2017-09-17T04:23:57.913Z,28
2017-09-17T04:24:57.909Z,32
2017-09-17T04:25:57.581Z,40
2017-09-17T04:26:57.886Z,48
2017-09-17T04:27:57.874Z,52
2017-09-17T04:28:57.866Z,60
2017-09-17T04:29:57.855Z,72
2017-09-17T04:30:57.536Z,84
2017-09-17T04:31:57.831Z,96
2017-09-17T04:32:57.517Z,112
2017-09-17T04:33:57.509Z,128
2017-09-17T04:34:57.806Z,148
2017-09-17T04:35:57.795Z,164
2017-09-17T04:36:57.783Z,184
2017-09-17T04:37:57.464Z,208
2017-09-17T04:38:57.456Z,232
2017-09-17T04:39:57.757Z,256
2017-09-17T04:40:57.123Z,284
2017-09-17T04:41:57.746Z,316
2017-09-17T04:42:57.729Z,344
2017-09-17T04:43:57.716Z,380
2017-09-17T04:44:57.393Z,420
2017-09-17T04:45:57.698Z,460
2017-09-17T04:46:57.686Z,504
2017-09-17T04:47:57.674Z,552
2017-09-17T04:48:57.661Z,608
2017-09-17T04:49:57.654Z,668
2017-09-17T04:50:57.640Z,724
2017-09-17T04:51:57.631Z,780
2017-09-17T04:52:57.623Z,840
2017-09-17T04:53:57.612Z,892
2017-09-17T04:54:57.602Z,936
2017-09-17T04:55:57.592Z,984
2017-09-17T04:56:57.272Z,1032
2017-09-17T04:57:57.570Z,1084
2017-09-17T04:58:57.563Z,1140
2017-09-17T04:59:57.554Z,1212
2017-09-17T05:00:57.541Z,1292
2017-09-17T05:01:57.541Z,1344
2017-09-17T05:02:57.524Z,1392
2017-09-17T05:03:57.202Z,1448
2017-09-17T05:04:57.195Z,1508
2017-09-17T05:05:57.184Z,1584
2017-09-17T05:06:57.480Z,1648
2017-09-17T05:07:57.472Z,1708
2017-09-17T05:08:57.186Z,1776
2017-09-17T05:09:57.481Z,1884
2017-09-17T05:10:57.443Z,2024
2017-09-17T05:11:57.432Z,2128
2017-09-17T05:12:57.424Z,2300
2017-09-17T05:13:57.414Z,2476
2017-09-17T05:14:57.099Z,2556
2017-09-17T05:15:57.394Z,2800
2017-09-17T05:16:57.382Z,2936
2017-09-17T05:17:57.064Z,2948
2017-09-17T05:18:57.401Z,3068
2017-09-17T05:19:56.737Z,3244
2017-09-17T05:20:57.034Z,3340
2017-09-17T05:21:57.020Z,3448
2017-09-17T05:22:57.017Z,3552
2017-09-17T05:23:57.005Z,3664
2017-09-17T05:24:56.993Z,3800
2017-09-17T05:25:56.987Z,3908
2017-09-17T05:26:56.974Z,3988
2017-09-17T05:27:57.283Z,4136
2017-09-17T05:28:57.273Z,4400
2017-09-17T05:29:57.255Z,4648
2017-09-17T05:30:57.250Z,4480
2017-09-17T05:31:56.947Z,4204
2017-09-17T05:32:56.921Z,4504
2017-09-17T05:33:57.220Z,4248
2017-09-17T05:34:57.215Z,4480
2017-09-17T05:35:57.207Z,4644
2017-09-17T05:36:57.191Z,4880
2017-09-17T05:37:57.190Z,5256
2017-09-17T05:38:57.181Z,5236
2017-09-17T05:39:57.173Z,5228
2017-09-17T05:40:56.857Z,5036
2017-09-17T05:41:57.149Z,5128
2017-09-17T05:42:56.837Z,5088
2017-09-17T05:43:56.837Z,5076
2017-09-17T05:44:57.127Z,5680
2017-09-17T05:45:56.507Z,6064
2017-09-17T05:46:56.493Z,6104
2017-09-17T05:47:56.801Z,5784
2017-09-17T05:48:56.789Z,5828
2017-09-17T05:49:57.088Z,6124
2017-09-17T05:50:56.461Z,6464
2017-09-17T05:51:57.078Z,6612
2017-09-17T05:52:57.063Z,6988
2017-09-17T05:53:57.060Z,7392
2017-09-17T05:54:57.049Z,8152
2017-09-17T05:55:57.042Z,6928
2017-09-17T05:56:57.036Z,8180
2017-09-17T05:57:57.043Z,8836
2017-09-17T05:58:57.019Z,8992
2017-09-17T05:59:56.704Z,9804
2017-09-17T06:00:56.697Z,9996
2017-09-17T06:01:56.689Z,10116
2017-09-17T06:02:56.687Z,10688
2017-09-17T06:03:56.993Z,10744
2017-09-17T06:04:56.990Z,10188
2017-09-17T06:05:57.008Z,10500
2017-09-17T06:06:56.969Z,11416
2017-09-17T06:07:56.978Z,11864
2017-09-17T06:08:56.648Z,11796
2017-09-17T06:09:56.950Z,12196
2017-09-17T06:10:56.325Z,11948
2017-09-17T06:11:56.946Z,12288
2017-09-17T06:12:56.640Z,12248
2017-09-17T06:13:56.925Z,13024
2017-09-17T06:14:56.618Z,13096
2017-09-17T06:15:56.920Z,13696
2017-09-17T06:16:56.918Z,13856
2017-09-17T06:17:56.597Z,14048
2017-09-17T06:18:56.600Z,14720
2017-09-17T06:19:56.905Z,15200
2017-09-17T06:20:56.908Z,15808
2017-09-17T06:21:56.586Z,16320
2017-09-17T06:22:56.889Z,17184
2017-09-17T06:23:56.580Z,16544
2017-09-17T06:24:56.890Z,16928
2017-09-17T06:25:56.884Z,17472
2017-09-17T06:26:56.570Z,12380
2017-09-17T06:27:56.874Z,17280
2017-09-17T06:28:56.561Z,18560
2017-09-17T06:29:56.865Z,17952
2017-09-17T06:30:56.868Z,16640
2017-09-17T06:31:56.857Z,19040
2017-09-17T06:32:56.863Z,11088
2017-09-17T06:33:56.858Z,17632
2017-09-17T06:34:56.867Z,17184
2017-09-17T06:35:56.855Z,13548
2017-09-17T06:36:56.867Z,13552
2017-09-17T06:37:56.856Z,15648
2017-09-17T06:38:56.542Z,21632
2017-09-17T06:39:56.852Z,14912
2017-09-17T06:40:56.856Z,20224
2017-09-17T06:41:56.849Z,20096
2017-09-17T06:42:56.854Z,19968
2017-09-17T06:43:56.844Z,16672
2017-09-17T06:44:56.842Z,16960
2017-09-17T06:45:56.844Z,17728
2017-09-17T06:46:56.841Z,18368
2017-09-17T06:47:56.224Z,19648
2017-09-17T06:48:56.526Z,18176
2017-09-17T06:49:56.529Z,22176
2017-09-17T06:50:56.832Z,20672
2017-09-17T06:51:56.528Z,19232
2017-09-17T06:52:56.528Z,19840
2017-09-17T06:53:56.845Z,20736
2017-09-17T06:54:56.525Z,18688
2017-09-17T06:55:56.842Z,20224
2017-09-17T06:56:56.525Z,19584
2017-09-17T06:57:56.521Z,17504
2017-09-17T06:58:56.835Z,18272
2017-09-17T06:59:56.829Z,16768
2017-09-17T07:00:56.837Z,17280
2017-09-17T07:01:56.836Z,19072
2017-09-17T07:02:56.837Z,19008
2017-09-17T07:03:56.830Z,20928
2017-09-17T07:04:56.823Z,21248
2017-09-17T07:05:56.834Z,21216
2017-09-17T07:06:56.826Z,22976
2017-09-17T07:07:56.838Z,21056
2017-09-17T07:08:56.516Z,20640
2017-09-17T07:09:56.519Z,20800
2017-09-17T07:10:56.827Z,17760
2017-09-17T07:11:56.525Z,19168
2017-09-17T07:12:56.517Z,17664
2017-09-17T07:13:56.832Z,15968
2017-09-17T07:14:56.840Z,16352
2017-09-17T07:15:56.833Z,19680
2017-09-17T07:16:56.829Z,17728
2017-09-17T07:17:56.826Z,16864
2017-09-17T07:18:56.831Z,16512
2017-09-17T07:19:56.824Z,17760
2017-09-17T07:20:56.831Z,15432
2017-09-17T07:21:56.821Z,15840
2017-09-17T07:22:56.829Z,20704
2017-09-17T07:23:56.830Z,19616
2017-09-17T07:24:56.822Z,18592
2017-09-17T07:25:56.517Z,17920
2017-09-17T07:26:56.543Z,17344
2017-09-17T07:27:56.826Z,18304
2017-09-17T07:28:56.819Z,19264
2017-09-17T07:29:56.819Z,21600
2017-09-17T07:30:56.822Z,22208
2017-09-17T07:31:56.817Z,21728
2017-09-17T07:32:56.822Z,20992
2017-09-17T07:33:56.819Z,19360
2017-09-17T07:34:56.813Z,21760
2017-09-17T07:35:56.502Z,22112
2017-09-17T07:36:56.817Z,21376
2017-09-17T07:37:56.815Z,21248
2017-09-17T07:38:56.508Z,20448
2017-09-17T07:39:56.816Z,22112
2017-09-17T07:40:56.808Z,24384
2017-09-17T07:41:56.505Z,25792
2017-09-17T07:42:56.810Z,26944
2017-09-17T07:43:56.811Z,26464
2017-09-17T07:44:56.807Z,23104
2017-09-17T07:45:56.805Z,23872
2017-09-17T07:46:56.502Z,20992
2017-09-17T07:47:57.005Z,24032
2017-09-17T07:48:56.807Z,26560
2017-09-17T07:49:56.811Z,25120
2017-09-17T07:50:56.804Z,24800
2017-09-17T07:51:56.804Z,21920
2017-09-17T07:52:56.806Z,20384
2017-09-17T07:53:56.808Z,20160
2017-09-17T07:54:56.497Z,20800
2017-09-17T07:55:56.182Z,20256
2017-09-17T07:56:56.183Z,20096
2017-09-17T07:57:56.795Z,21440
2017-09-17T07:58:56.182Z,23040
2017-09-17T07:59:56.797Z,24736
2017-09-17T08:00:56.796Z,25088
2017-09-17T08:01:56.796Z,25088
2017-09-17T08:02:56.799Z,22784
2017-09-17T08:03:56.498Z,18112
2017-09-17T08:04:56.798Z,14028
2017-09-17T08:05:56.486Z,13160
2017-09-17T08:06:56.797Z,13212
2017-09-17T08:07:56.798Z,13332
2017-09-17T08:08:56.492Z,13552
2017-09-17T08:09:56.796Z,13644
2017-09-17T08:10:56.796Z,13716
2017-09-17T08:11:56.481Z,13824
2017-09-17T08:12:56.790Z,13912
2017-09-17T08:13:56.787Z,14064
2017-09-17T08:14:56.797Z,14296
2017-09-17T08:15:56.812Z,14572
2017-09-17T08:16:56.780Z,14728
2017-09-17T08:17:56.783Z,14776
2017-09-17T08:18:56.476Z,14772
2017-09-17T08:19:56.159Z,14768
2017-09-17T08:20:56.469Z,14784
2017-09-17T08:21:56.772Z,14824
2017-09-17T08:22:56.794Z,14848
2017-09-17T08:23:56.468Z,14824
2017-09-17T08:24:56.765Z,14780
2017-09-17T08:25:56.458Z,14768
2017-09-17T08:26:56.458Z,14708
2017-09-17T08:27:56.765Z,14660
2017-09-17T08:28:56.462Z,14564
2017-09-17T08:29:56.452Z,14420
2017-09-17T08:30:56.764Z,14304
2017-09-17T08:31:56.755Z,14172
2017-09-17T08:32:56.445Z,14052
2017-09-17T08:33:56.441Z,13996
2017-09-17T08:34:56.759Z,13984
2017-09-17T08:35:56.438Z,13948
2017-09-17T08:36:56.754Z,13884
2017-09-17T08:37:56.435Z,13844
2017-09-17T08:38:56.429Z,13896
2017-09-17T08:39:56.739Z,13980
2017-09-17T08:40:56.740Z,14012
2017-09-17T08:41:56.731Z,14092
2017-09-17T08:42:56.732Z,14124
2017-09-17T08:43:56.735Z,14296
2017-09-17T08:44:56.423Z,14564
2017-09-17T08:45:56.729Z,14972
2017-09-17T08:46:56.725Z,15440
2017-09-17T08:47:56.662Z,15976
2017-09-17T08:48:56.406Z,16472
2017-09-17T08:49:56.098Z,16960
2017-09-17T08:50:56.406Z,17088
2017-09-17T08:51:56.719Z,17184
2017-09-17T08:52:56.703Z,16992
2017-09-17T08:53:56.715Z,16864
2017-09-17T08:54:56.703Z,16832
2017-09-17T08:55:56.696Z,16736
2017-09-17T08:56:56.697Z,16204
2017-09-17T08:57:56.724Z,15924
2017-09-17T08:58:56.696Z,15884
2017-09-17T08:59:56.693Z,15804
2017-09-17T09:00:56.726Z,15856
2017-09-17T09:01:56.691Z,15924
2017-09-17T09:02:56.374Z,16032
2017-09-17T09:03:56.373Z,16160
2017-09-17T09:04:56.370Z,16108
2017-09-17T09:05:56.686Z,15888
2017-09-17T09:06:56.365Z,15668
2017-09-17T09:07:56.397Z,15496
2017-09-17T09:08:56.671Z,15576
2017-09-17T09:09:56.670Z,15616
2017-09-17T09:10:56.362Z,15700
2017-09-17T09:11:56.665Z,15600
2017-09-17T09:12:56.670Z,15592
2017-09-17T09:13:56.358Z,15672
2017-09-17T09:14:56.659Z,15720
2017-09-17T09:15:56.657Z,15756
2017-09-17T09:16:56.657Z,15732
2017-09-17T09:17:56.655Z,15640
2017-09-17T09:18:56.354Z,15816
2017-09-17T09:19:56.344Z,15756
2017-09-17T09:20:56.648Z,15536
2017-09-17T09:21:56.338Z,15072
2017-09-17T09:22:56.342Z,14572
2017-09-17T09:23:56.338Z,14236
2017-09-17T09:24:56.333Z,13840
2017-09-17T09:25:56.334Z,13440
2017-09-17T09:26:56.325Z,13328
2017-09-17T09:27:56.328Z,13272
2017-09-17T09:28:56.327Z,13384
2017-09-17T09:29:56.328Z,13616
2017-09-17T09:30:56.321Z,13512
2017-09-17T09:31:56.322Z,13328
2017-09-17T09:32:56.318Z,13208
2017-09-17T09:33:56.629Z,13196
2017-09-17T09:34:56.627Z,13232
2017-09-17T09:35:56.311Z,13076
2017-09-17T09:36:56.314Z,13124
2017-09-17T09:37:56.622Z,13188
2017-09-17T09:38:56.618Z,13100
2017-09-17T09:39:56.615Z,13004
2017-09-17T09:40:56.652Z,12916
2017-09-17T09:41:56.613Z,12660
2017-09-17T09:42:56.609Z,12400
2017-09-17T09:43:56.334Z,12192
2017-09-17T09:44:56.610Z,11976
2017-09-17T09:45:56.605Z,11820
2017-09-17T09:46:56.613Z,11652
2017-09-17T09:47:56.596Z,11492
2017-09-17T09:48:56.600Z,11268
2017-09-17T09:49:56.602Z,10968
2017-09-17T09:50:56.597Z,10656
2017-09-17T09:51:56.597Z,10332
2017-09-17T09:52:56.285Z,9956
2017-09-17T09:53:56.279Z,9572
2017-09-17T09:54:56.280Z,9228
2017-09-17T09:55:56.280Z,8928
2017-09-17T09:56:56.279Z,8712
2017-09-17T09:57:56.590Z,8528
2017-09-17T09:58:56.583Z,8444
2017-09-17T09:59:56.278Z,8408
2017-09-17T10:00:56.273Z,8420
2017-09-17T10:01:56.572Z,8332
2017-09-17T10:02:56.577Z,8292
2017-09-17T10:03:56.263Z,8180
2017-09-17T10:04:56.573Z,8040
2017-09-17T10:05:56.257Z,7992
2017-09-17T10:06:56.266Z,8020
2017-09-17T10:07:56.562Z,8052
2017-09-17T10:08:56.255Z,8112
2017-09-17T10:09:56.256Z,8272
2017-09-17T10:10:56.256Z,8608
2017-09-17T10:11:55.631Z,8988
2017-09-17T10:12:56.244Z,9236
2017-09-17T10:13:56.553Z,9408
2017-09-17T10:14:56.551Z,9540
2017-09-17T10:15:56.242Z,9580
2017-09-17T10:16:56.541Z,9648
2017-09-17T10:17:56.547Z,9556
2017-09-17T10:18:56.540Z,9380
2017-09-17T10:19:56.539Z,9180
2017-09-17T10:20:56.539Z,8952
2017-09-17T10:21:56.534Z,8712
2017-09-17T10:22:56.223Z,8492
2017-09-17T10:23:56.535Z,8292
2017-09-17T10:24:56.533Z,8104
2017-09-17T10:25:56.533Z,7972
2017-09-17T10:26:56.524Z,7848
2017-09-17T10:27:56.517Z,7720
2017-09-17T10:28:56.521Z,7600
2017-09-17T10:29:56.517Z,7480
2017-09-17T10:30:56.516Z,7352
2017-09-17T10:31:56.519Z,7204
2017-09-17T10:32:56.509Z,7060
2017-09-17T10:33:56.199Z,6908
2017-09-17T10:34:56.509Z,6768
2017-09-17T10:35:56.496Z,6616
2017-09-17T10:36:56.504Z,6504
2017-09-17T10:37:56.501Z,6412
2017-09-17T10:38:56.496Z,6340
2017-09-17T10:39:56.494Z,6296
2017-09-17T10:40:56.493Z,6248
2017-09-17T10:41:56.484Z,6232
2017-09-17T10:42:56.482Z,6232
2017-09-17T10:43:56.481Z,6232
2017-09-17T10:44:56.512Z,6224
2017-09-17T10:45:56.485Z,6204
2017-09-17T10:46:56.171Z,6228
2017-09-17T10:47:56.486Z,6200
2017-09-17T10:48:56.474Z,6260
2017-09-17T10:49:56.467Z,6296
2017-09-17T10:50:56.165Z,6244
2017-09-17T10:51:55.842Z,6116
2017-09-17T10:52:56.464Z,5992
2017-09-17T10:53:56.463Z,5904
2017-09-17T10:54:56.455Z,5856
2017-09-17T10:55:56.145Z,5812
2017-09-17T10:56:56.452Z,5756
2017-09-17T10:57:56.141Z,5688
2017-09-17T10:58:56.448Z,5592
2017-09-17T10:59:55.819Z,5504
2017-09-17T11:00:56.450Z,5444
2017-09-17T11:01:56.433Z,5392
2017-09-17T11:02:56.437Z,5340
2017-09-17T11:03:56.431Z,5296
2017-09-17T11:04:55.809Z,5260
2017-09-17T11:05:56.112Z,5244
2017-09-17T11:06:56.112Z,5228
2017-09-17T11:07:56.419Z,5220
2017-09-17T11:08:56.112Z,5204
2017-09-17T11:09:56.414Z,5192
2017-09-17T11:10:56.099Z,5176
2017-09-17T11:11:56.099Z,5164
2017-09-17T11:12:56.404Z,5160
2017-09-17T11:13:56.405Z,5144
2017-09-17T11:14:56.086Z,5184
2017-09-17T11:15:56.088Z,5220
2017-09-17T11:16:55.775Z,5256
2017-09-17T11:17:56.392Z,5296
2017-09-17T11:18:56.384Z,5328
2017-09-17T11:19:56.385Z,5364
2017-09-17T11:20:56.379Z,5384
2017-09-17T11:21:56.377Z,5412
2017-09-17T11:22:56.374Z,5424
2017-09-17T11:23:56.064Z,5412
2017-09-17T11:24:56.063Z,5412
2017-09-17T11:25:56.375Z,5416
2017-09-17T11:26:56.371Z,5400
2017-09-17T11:27:56.052Z,5404
2017-09-17T11:28:56.357Z,5452
2017-09-17T11:29:56.042Z,5512
2017-09-17T11:30:56.042Z,5544
2017-09-17T11:31:56.347Z,5548
2017-09-17T11:32:56.036Z,5536
2017-09-17T11:33:56.032Z,5552
2017-09-17T11:34:56.026Z,5556
2017-09-17T11:35:56.024Z,5608
2017-09-17T11:36:56.335Z,5720
2017-09-17T11:37:56.021Z,5872
2017-09-17T11:38:56.325Z,6052
2017-09-17T11:39:56.014Z,6228
2017-09-17T11:40:56.006Z,6496
2017-09-17T11:41:56.323Z,6720
2017-09-17T11:42:56.005Z,6832
2017-09-17T11:43:56.309Z,7008
2017-09-17T11:44:56.304Z,7160
2017-09-17T11:45:55.997Z,7288
2017-09-17T11:46:56.306Z,7464
2017-09-17T11:47:55.988Z,7676
2017-09-17T11:48:55.988Z,7924
2017-09-17T11:49:55.989Z,8140
2017-09-17T11:50:55.987Z,8412
2017-09-17T11:51:56.289Z,8676
2017-09-17T11:52:55.980Z,8960
2017-09-17T11:53:55.669Z,9208
2017-09-17T11:54:55.663Z,9412
2017-09-17T11:55:55.659Z,9552
2017-09-17T11:56:56.287Z,9444
2017-09-17T11:57:56.273Z,9468
2017-09-17T11:58:55.657Z,9740
2017-09-17T11:59:55.957Z,10176
2017-09-17T12:00:55.961Z,10396
2017-09-17T12:01:55.954Z,10360
2017-09-17T12:02:55.956Z,10428
2017-09-17T12:03:56.260Z,10152
2017-09-17T12:04:55.949Z,9808
2017-09-17T12:05:55.945Z,9632
2017-09-17T12:06:55.636Z,9444
2017-09-17T12:07:55.942Z,9208
2017-09-17T12:08:56.247Z,9000
2017-09-17T12:09:55.629Z,8848
2017-09-17T12:10:55.629Z,8780
2017-09-17T12:11:55.930Z,8440
2017-09-17T12:12:55.628Z,7936
2017-09-17T12:13:55.623Z,7700
2017-09-17T12:14:55.620Z,7712
2017-09-17T12:15:56.237Z,7984
2017-09-17T12:16:55.937Z,8180
2017-09-17T12:17:55.922Z,8240
2017-09-17T12:18:55.919Z,8584
2017-09-17T12:19:55.919Z,9036
2017-09-17T12:20:55.608Z,9528
2017-09-17T12:21:55.607Z,9836
2017-09-17T12:22:55.604Z,9984
2017-09-17T12:23:56.224Z,10192
2017-09-17T12:24:56.229Z,10792
2017-09-17T12:25:55.906Z,11072
2017-09-17T12:26:55.910Z,11296
2017-09-17T12:27:56.242Z,11568
2017-09-17T12:28:56.209Z,11536
2017-09-17T12:29:55.901Z,11848
2017-09-17T12:30:56.207Z,12308
2017-09-17T12:31:55.919Z,12964
2017-09-17T12:32:56.198Z,13368
2017-09-17T12:33:55.898Z,13620
2017-09-17T12:34:56.197Z,13684
2017-09-17T12:35:56.207Z,13300
2017-09-17T12:36:56.201Z,12816
2017-09-17T12:37:55.886Z,12364
2017-09-17T12:38:56.196Z,12132
2017-09-17T12:39:56.192Z,12036
2017-09-17T12:40:56.193Z,11888
2017-09-17T12:41:55.881Z,11524
2017-09-17T12:42:55.887Z,11272
2017-09-17T12:43:56.188Z,10836
2017-09-17T12:44:56.193Z,10744
2017-09-17T12:45:56.184Z,10860
2017-09-17T12:46:55.873Z,10912
2017-09-17T12:47:56.186Z,10400
2017-09-17T12:48:56.184Z,9680
2017-09-17T12:49:55.868Z,9092
2017-09-17T12:50:56.177Z,8756
2017-09-17T12:51:56.175Z,8640
2017-09-17T12:52:55.864Z,8568
2017-09-17T12:53:56.173Z,8896
2017-09-17T12:54:56.171Z,9380
2017-09-17T12:55:56.165Z,9292
2017-09-17T12:56:56.167Z,8704
2017-09-17T12:57:56.167Z,8276
2017-09-17T12:58:56.162Z,7928
2017-09-17T12:59:55.846Z,7588
2017-09-17T13:00:55.852Z,7248
2017-09-17T13:01:55.854Z,7028
2017-09-17T13:02:56.154Z,6872
2017-09-17T13:03:55.846Z,6824
2017-09-17T13:04:56.151Z,6708
2017-09-17T13:05:56.151Z,6592
2017-09-17T13:06:55.873Z,6476
2017-09-17T13:07:55.835Z,6400
2017-09-17T13:08:56.138Z,6272
2017-09-17T13:09:55.835Z,6112
2017-09-17T13:10:56.142Z,5960
2017-09-17T13:11:55.830Z,5812
2017-09-17T13:12:56.141Z,5700
2017-09-17T13:13:55.825Z,5664
2017-09-17T13:14:55.850Z,5672
2017-09-17T13:15:56.139Z,5676
2017-09-17T13:16:55.817Z,5600
2017-09-17T13:17:55.816Z,5512
2017-09-17T13:18:56.120Z,5312
2017-09-17T13:19:56.121Z,5412
2017-09-17T13:20:56.113Z,5452
2017-09-17T13:21:55.808Z,5408
2017-09-17T13:22:56.118Z,5476
2017-09-17T13:23:56.106Z,5432
2017-09-17T13:24:56.105Z,5324
2017-09-17T13:25:56.103Z,5264
2017-09-17T13:26:56.101Z,5260
2017-09-17T13:27:56.098Z,5288
2017-09-17T13:28:56.101Z,5224
2017-09-17T13:29:55.474Z,5136
2017-09-17T13:30:56.092Z,5012
2017-09-17T13:31:55.473Z,5020
2017-09-17T13:32:55.772Z,4980
2017-09-17T13:33:55.779Z,5016
2017-09-17T13:34:56.075Z,5016
2017-09-17T13:35:56.080Z,5044
2017-09-17T13:36:55.765Z,5088